createdAt,value
2022-10-19T00:00:07.329Z,73.1
2022-10-19T00:01:23.549Z,73.1
2022-10-19T00:02:39.703Z,73.2
2022-10-19T00:03:55.925Z,73.2
2022-10-19T00:05:12.065Z,73.1
2022-10-19T00:06:28.312Z,73.2
2022-10-19T00:07:44.491Z,73.1
2022-10-19T00:09:00.685Z,73.1
2022-10-19T00:10:16.865Z,73.1
2022-10-19T00:11:33.013Z,73.1
2022-10-19T00:12:49.247Z,73.1
2022-10-19T00:14:05.438Z,73.1
2022-10-19T00:15:21.624Z,73.2
2022-10-19T00:16:36.821Z,73.1
2022-10-19T00:17:52.966Z,73.1
2022-10-19T00:19:09.188Z,73.1
2022-10-19T00:20:25.387Z,73.1
2022-10-19T00:21:41.567Z,73.1
2022-10-19T00:22:57.755Z,73.1
2022-10-19T00:24:13.897Z,73
2022-10-19T00:25:29.162Z,73.1
2022-10-19T00:26:44.310Z,73.1
2022-10-19T00:27:59.583Z,73.1
2022-10-19T00:29:14.772Z,73
2022-10-19T00:30:30.956Z,72.9
2022-10-19T00:31:46.178Z,73.1
2022-10-19T00:33:01.333Z,73
2022-10-19T00:34:17.576Z,73
2022-10-19T00:35:33.752Z,73
2022-10-19T00:36:49.890Z,73
2022-10-19T00:38:06.123Z,73
2022-10-19T00:39:22.316Z,73
2022-10-19T00:40:38.458Z,73.1
2022-10-19T00:41:54.700Z,73.1
2022-10-19T00:43:10.880Z,73.1
2022-10-19T00:44:27.006Z,73.1
2022-10-19T00:45:43.199Z,73
2022-10-19T00:46:59.439Z,73
2022-10-19T00:48:15.638Z,73.1
2022-10-19T00:49:30.774Z,73
2022-10-19T00:50:46.964Z,73
2022-10-19T00:52:03.157Z,72.9
2022-10-19T00:53:19.333Z,72.9
2022-10-19T00:54:35.581Z,72.9
2022-10-19T00:55:51.772Z,72.7
2022-10-19T00:57:07.964Z,72.8
2022-10-19T00:58:23.167Z,72.9
2022-10-19T00:59:38.373Z,72.9
2022-10-19T01:00:54.566Z,72.8
2022-10-19T01:02:10.689Z,72.8
2022-10-19T01:03:26.875Z,72.8
2022-10-19T01:04:43.115Z,72.9
2022-10-19T01:05:59.243Z,72.9
2022-10-19T01:07:15.495Z,72.9
2022-10-19T01:08:31.630Z,72.9
2022-10-19T01:09:47.863Z,72.7
2022-10-19T01:11:03.019Z,72.9
2022-10-19T01:12:19.275Z,73
2022-10-19T01:13:35.445Z,72.9
2022-10-19T01:14:51.640Z,72.9
2022-10-19T01:16:07.821Z,73
2022-10-19T01:17:23.956Z,72.6
2022-10-19T01:18:40.145Z,72.7
2022-10-19T01:19:56.381Z,72.9
2022-10-19T01:21:12.588Z,72.9
2022-10-19T01:22:28.767Z,73
2022-10-19T01:23:44.961Z,73
2022-10-19T01:25:00.115Z,73
2022-10-19T01:26:15.319Z,73
2022-10-19T01:27:31.497Z,73
2022-10-19T01:28:47.752Z,73.1
2022-10-19T01:30:03.941Z,73
2022-10-19T01:31:20.053Z,73
2022-10-19T01:32:36.310Z,72.8
2022-10-19T01:33:52.434Z,72.9
2022-10-19T01:35:08.674Z,72.8
2022-10-19T01:36:24.877Z,72.9
2022-10-19T01:37:41.059Z,73.1
2022-10-19T01:38:57.237Z,73.1
2022-10-19T01:40:13.365Z,73.1
2022-10-19T01:41:29.546Z,73.1
2022-10-19T01:42:44.750Z,73.1
2022-10-19T01:44:01.015Z,73
2022-10-19T01:45:17.198Z,73
2022-10-19T01:46:33.380Z,73
2022-10-19T01:47:49.563Z,73.1
2022-10-19T01:49:05.689Z,72.8
2022-10-19T01:50:21.940Z,72.9
2022-10-19T01:51:37.163Z,72.8
2022-10-19T01:52:52.290Z,72.7
2022-10-19T01:54:07.577Z,72.8
2022-10-19T01:55:22.706Z,72.8
2022-10-19T01:56:37.933Z,73
2022-10-19T01:57:53.186Z,73
2022-10-19T01:59:09.318Z,73
2022-10-19T02:00:25.560Z,73
2022-10-19T02:01:41.757Z,73.1
2022-10-19T02:02:57.940Z,73
2022-10-19T02:04:14.055Z,73.1
2022-10-19T02:05:30.312Z,73
2022-10-19T02:06:46.514Z,73.1
2022-10-19T02:08:02.697Z,73.1
2022-10-19T02:09:18.875Z,73.1
2022-10-19T02:10:35.063Z,73.1
2022-10-19T02:11:51.180Z,73
2022-10-19T02:13:07.437Z,73
2022-10-19T02:14:22.636Z,73
2022-10-19T02:15:38.751Z,73
2022-10-19T02:16:55.013Z,72.9
2022-10-19T02:18:11.126Z,73
2022-10-19T02:19:27.327Z,73
2022-10-19T02:20:43.509Z,72.9
2022-10-19T02:21:59.777Z,72.9
2022-10-19T02:23:14.985Z,73.1
2022-10-19T02:24:30.189Z,73.1
2022-10-19T02:25:45.400Z,73.1
2022-10-19T02:27:00.596Z,73.1
2022-10-19T02:28:15.813Z,72.9
2022-10-19T02:29:31.027Z,72.9
2022-10-19T02:30:47.137Z,72.9
2022-10-19T02:32:03.310Z,72.9
2022-10-19T02:33:19.585Z,73
2022-10-19T02:34:35.688Z,73
2022-10-19T02:35:51.959Z,73
2022-10-19T02:37:08.153Z,73
2022-10-19T02:38:24.323Z,73
2022-10-19T02:39:40.450Z,73
2022-10-19T02:40:56.627Z,72.8
2022-10-19T02:42:12.813Z,72.8
2022-10-19T02:43:29.012Z,73
2022-10-19T02:44:45.277Z,73.1
2022-10-19T02:46:00.469Z,73.1
2022-10-19T02:47:16.587Z,73
2022-10-19T02:48:32.843Z,73
2022-10-19T02:49:48.951Z,73.1
2022-10-19T02:51:05.132Z,73
2022-10-19T02:52:21.418Z,72.9
2022-10-19T02:53:37.589Z,72.9
2022-10-19T02:54:52.813Z,72.9
2022-10-19T02:56:07.935Z,73
2022-10-19T02:57:24.118Z,72.9
2022-10-19T02:58:39.338Z,72.9
2022-10-19T02:59:54.614Z,72.9
2022-10-19T03:01:10.802Z,72.8
2022-10-19T03:02:26.990Z,73
2022-10-19T03:03:43.091Z,73
2022-10-19T03:04:59.290Z,73.1
2022-10-19T03:06:15.557Z,73
2022-10-19T03:07:31.751Z,72.7
2022-10-19T03:08:47.849Z,72.9
2022-10-19T03:10:04.035Z,72.9
2022-10-19T03:11:20.310Z,73.1
2022-10-19T03:12:36.399Z,73.1
2022-10-19T03:13:52.683Z,72.9
2022-10-19T03:15:08.856Z,72.9
2022-10-19T03:16:23.990Z,73.1
2022-10-19T03:17:40.163Z,72.9
2022-10-19T03:18:56.349Z,72.9
2022-10-19T03:20:12.547Z,72.9
2022-10-19T03:21:28.719Z,72.8
2022-10-19T03:22:44.994Z,73.1
2022-10-19T03:24:01.195Z,73
2022-10-19T03:25:16.399Z,73.1
2022-10-19T03:26:31.600Z,73.1
2022-10-19T03:27:46.741Z,73.1
2022-10-19T03:29:01.939Z,73.1
2022-10-19T03:30:18.205Z,73.2
2022-10-19T03:31:34.402Z,73
2022-10-19T03:32:50.489Z,73
2022-10-19T03:34:06.672Z,73.1
2022-10-19T03:35:22.876Z,73.1
2022-10-19T03:36:39.138Z,72.9
2022-10-19T03:37:55.327Z,73.1
2022-10-19T03:39:11.526Z,72.8
2022-10-19T03:40:27.715Z,73
2022-10-19T03:41:43.803Z,73
2022-10-19T03:42:59.995Z,73
2022-10-19T03:44:16.175Z,73.1
2022-10-19T03:45:31.381Z,73.1
2022-10-19T03:46:47.558Z,73
2022-10-19T03:49:20.040Z,72.9
2022-10-19T03:50:36.134Z,73
2022-10-19T03:51:52.403Z,72.8
2022-10-19T03:53:08.590Z,72.7
2022-10-19T03:54:24.696Z,72.8
2022-10-19T03:55:39.898Z,72.8
2022-10-19T03:56:55.201Z,72.9
2022-10-19T03:58:11.292Z,73.1
2022-10-19T03:59:27.481Z,73.1
2022-10-19T04:00:43.758Z,73.1
2022-10-19T04:01:59.950Z,73.1
2022-10-19T04:03:16.140Z,73.2
2022-10-19T04:04:32.322Z,73
2022-10-19T04:05:48.415Z,73.1
2022-10-19T04:07:04.704Z,73.1
2022-10-19T04:08:20.781Z,73.2
2022-10-19T04:09:36.972Z,73.1
2022-10-19T04:10:53.174Z,73.2
2022-10-19T04:12:09.346Z,73.2
2022-10-19T04:13:24.547Z,73.1
2022-10-19T04:14:40.837Z,73.2
2022-10-19T04:15:57.018Z,73.2
2022-10-19T04:17:13.112Z,73.2
2022-10-19T04:18:29.396Z,73.1
2022-10-19T04:19:45.491Z,73.1
2022-10-19T04:21:01.781Z,73
2022-10-19T04:22:16.986Z,72.9
2022-10-19T04:23:32.191Z,72.9
2022-10-19T04:24:47.306Z,72.9
2022-10-19T04:26:02.614Z,72.6
2022-10-19T04:27:18.795Z,73
2022-10-19T04:28:34.882Z,73.1
2022-10-19T04:29:51.175Z,73
2022-10-19T04:31:07.354Z,73.1
2022-10-19T04:32:23.441Z,73
2022-10-19T04:33:39.630Z,73
2022-10-19T04:34:55.919Z,73.1
2022-10-19T04:36:12.012Z,73.1
2022-10-19T04:37:28.186Z,72.9
2022-10-19T04:38:44.387Z,73.1
2022-10-19T04:40:00.673Z,72.9
2022-10-19T04:41:16.855Z,73.1
2022-10-19T04:42:32.069Z,73.1
2022-10-19T04:43:48.151Z,73.1
2022-10-19T04:45:04.321Z,73.1
2022-10-19T04:46:20.626Z,73.2
2022-10-19T04:47:36.816Z,73.1
2022-10-19T04:48:52.997Z,73.1
2022-10-19T04:50:09.077Z,73.1
2022-10-19T04:51:24.406Z,73
2022-10-19T04:52:39.493Z,73.1
2022-10-19T04:53:54.816Z,73.1
2022-10-19T04:55:10.019Z,73.1
2022-10-19T04:56:26.205Z,73.1
2022-10-19T04:57:42.283Z,72.9
2022-10-19T04:58:58.469Z,73
2022-10-19T05:00:14.767Z,73.1
2022-10-19T05:01:30.847Z,73.1
2022-10-19T05:02:47.030Z,72.9
2022-10-19T05:04:03.330Z,72.9
2022-10-19T05:05:19.402Z,73.1
2022-10-19T05:06:35.596Z,73.1
2022-10-19T05:07:51.884Z,73.2
2022-10-19T05:09:08.084Z,73.2
2022-10-19T05:10:24.161Z,73.1
2022-10-19T05:11:39.468Z,73.2
2022-10-19T05:12:55.554Z,72.9
2022-10-19T05:14:11.724Z,73.1
2022-10-19T05:15:27.924Z,73.1
2022-10-19T05:16:44.214Z,73.1
2022-10-19T05:18:00.401Z,73.1
2022-10-19T05:19:16.597Z,73.2
2022-10-19T05:20:31.796Z,73.1
2022-10-19T05:21:46.902Z,73.1
2022-10-19T05:23:03.085Z,73.2
2022-10-19T05:24:19.381Z,73
2022-10-19T05:25:34.487Z,73.1
2022-10-19T05:26:50.772Z,73.2
2022-10-19T05:28:06.852Z,73.2
2022-10-19T05:29:23.035Z,73.2
2022-10-19T05:30:39.346Z,73.2
2022-10-19T05:31:55.411Z,72.9
2022-10-19T05:33:11.605Z,72.9
2022-10-19T05:34:27.791Z,73
2022-10-19T05:35:44.087Z,72.8
2022-10-19T05:37:00.156Z,72.9
2022-10-19T05:38:16.476Z,73
2022-10-19T05:39:32.644Z,73
2022-10-19T05:40:48.729Z,72.7
2022-10-19T05:42:03.931Z,72.9
2022-10-19T05:43:20.225Z,73
2022-10-19T05:45:52.605Z,73.2
2022-10-19T05:47:08.680Z,73.2
2022-10-19T05:48:23.883Z,73.1
2022-10-19T05:49:39.217Z,73.2
2022-10-19T05:50:54.312Z,73.2
2022-10-19T05:52:09.516Z,73.2
2022-10-19T05:53:25.845Z,73
2022-10-19T05:54:41.037Z,73.2
2022-10-19T05:55:57.345Z,73.2
2022-10-19T05:57:13.535Z,73.2
2022-10-19T05:58:29.733Z,73.1
2022-10-19T05:59:45.912Z,73.2
2022-10-19T06:01:02.060Z,73.1
2022-10-19T06:02:18.238Z,73.2
2022-10-19T06:03:34.471Z,73.2
2022-10-19T06:04:50.627Z,73.2
2022-10-19T06:06:06.801Z,73.1
2022-10-19T06:07:22.994Z,73.2
2022-10-19T06:08:39.232Z,73.1
2022-10-19T06:09:55.411Z,73.2
2022-10-19T06:11:10.620Z,73.1
2022-10-19T06:12:26.795Z,73.1
2022-10-19T06:13:42.954Z,73.1
2022-10-19T06:14:59.143Z,73.2
2022-10-19T06:16:15.369Z,73.1
2022-10-19T06:17:31.558Z,73.1
2022-10-19T06:18:47.690Z,73.1
2022-10-19T06:20:02.944Z,73.1
2022-10-19T06:21:18.155Z,73
2022-10-19T06:23:49.552Z,73.2
2022-10-19T06:25:04.764Z,73.4
2022-10-19T06:26:20.902Z,73.3
2022-10-19T06:27:37.143Z,73.3
2022-10-19T06:28:53.312Z,73.3
2022-10-19T06:30:09.455Z,73.3
2022-10-19T06:31:25.695Z,73.2
2022-10-19T06:32:41.829Z,73.2
2022-10-19T06:33:58.077Z,73.1
2022-10-19T06:35:14.209Z,73.1
2022-10-19T06:36:30.390Z,73.1
2022-10-19T06:37:46.592Z,73.1
2022-10-19T06:39:02.767Z,73
2022-10-19T06:40:18.957Z,72.9
2022-10-19T06:41:34.165Z,72.9
2022-10-19T06:42:50.356Z,72.9
2022-10-19T06:44:06.527Z,72.8
2022-10-19T06:45:22.727Z,72.6
2022-10-19T06:46:38.901Z,72.8
2022-10-19T06:47:54.127Z,72.8
2022-10-19T06:49:09.319Z,72.8
2022-10-19T06:50:24.530Z,72.8
2022-10-19T06:51:39.740Z,72.7
2022-10-19T06:52:55.930Z,72.7
2022-10-19T06:54:12.112Z,72.6
2022-10-19T06:55:28.296Z,72.6
2022-10-19T06:56:44.493Z,72.5
2022-10-19T06:58:00.670Z,72.6
2022-10-19T06:59:16.859Z,72.6
2022-10-19T07:00:33.053Z,72.6
2022-10-19T07:01:49.228Z,72.7
2022-10-19T07:03:05.433Z,72.6
2022-10-19T07:04:21.614Z,72.6
2022-10-19T07:05:37.807Z,72.6
2022-10-19T07:06:53.979Z,72.6
2022-10-19T07:08:09.195Z,72.6
2022-10-19T07:09:25.381Z,72.6
2022-10-19T07:10:41.557Z,72.5
2022-10-19T07:11:57.758Z,72.5
2022-10-19T07:13:13.926Z,72.5
2022-10-19T07:14:30.121Z,72.5
2022-10-19T07:15:46.315Z,72.5
2022-10-19T07:17:01.520Z,72.4
2022-10-19T07:18:16.725Z,72.4
2022-10-19T07:19:31.932Z,72.3
2022-10-19T07:20:47.147Z,72.3
2022-10-19T07:22:03.320Z,72.2
2022-10-19T07:23:19.513Z,72.2
2022-10-19T07:24:35.715Z,72.2
2022-10-19T07:25:51.879Z,72.2
2022-10-19T07:27:08.094Z,72.2
2022-10-19T07:28:24.274Z,72.1
2022-10-19T07:29:40.449Z,72.1
2022-10-19T07:30:56.639Z,72.1
2022-10-19T07:32:12.828Z,72.1
2022-10-19T07:33:29.002Z,72.1
2022-10-19T07:34:45.196Z,72.1
2022-10-19T07:36:01.399Z,72.1
2022-10-19T07:37:16.599Z,72
2022-10-19T07:38:32.777Z,72
2022-10-19T07:39:48.973Z,71.9
2022-10-19T07:41:05.160Z,71.8
2022-10-19T07:42:21.336Z,71.9
2022-10-19T07:43:37.522Z,71.9
2022-10-19T07:44:53.713Z,71.7
2022-10-19T07:46:08.922Z,71.7
2022-10-19T07:47:24.134Z,71.7
2022-10-19T07:48:40.329Z,71.6
2022-10-19T07:49:56.506Z,71.7
2022-10-19T07:51:12.695Z,71.7
2022-10-19T07:52:28.880Z,71.7
2022-10-19T07:53:45.050Z,71.6
2022-10-19T07:55:01.244Z,71.6
2022-10-19T07:56:17.451Z,71.6
2022-10-19T07:57:33.646Z,71.6
2022-10-19T07:58:49.803Z,71.6
2022-10-19T08:00:05.994Z,71.6
2022-10-19T08:01:22.193Z,71.6
2022-10-19T08:02:38.394Z,71.6
2022-10-19T08:03:53.599Z,71.6
2022-10-19T08:05:09.779Z,71.6
2022-10-19T08:06:25.962Z,71.5
2022-10-19T08:07:42.132Z,71.4
2022-10-19T08:08:58.347Z,71.4
2022-10-19T08:10:14.502Z,71.4
2022-10-19T08:11:30.718Z,71.4
2022-10-19T08:12:45.924Z,71.3
2022-10-19T08:14:01.105Z,71.4
2022-10-19T08:15:16.351Z,71.4
2022-10-19T08:16:31.537Z,71.4
2022-10-19T08:17:46.755Z,71.4
2022-10-19T08:19:01.961Z,71.5
2022-10-19T08:20:18.142Z,71.5
2022-10-19T08:21:34.346Z,71.5
2022-10-19T08:22:50.503Z,71.6
2022-10-19T08:24:06.696Z,71.6
2022-10-19T08:25:22.885Z,71.3
2022-10-19T08:26:39.065Z,71.4
2022-10-19T08:27:55.281Z,71.3
2022-10-19T08:29:11.470Z,71.3
2022-10-19T08:30:27.639Z,71.2
2022-10-19T08:31:43.816Z,71.1
2022-10-19T08:33:00.014Z,71.3
2022-10-19T08:34:16.212Z,71.3
2022-10-19T08:35:31.413Z,71.3
2022-10-19T08:36:47.589Z,71.3
2022-10-19T08:38:03.758Z,71.2
2022-10-19T08:39:19.961Z,71.2
2022-10-19T08:40:36.140Z,71.1
2022-10-19T08:41:52.347Z,71
2022-10-19T08:43:08.536Z,71.1
2022-10-19T08:44:23.720Z,71.1
2022-10-19T08:45:38.932Z,71.1
2022-10-19T08:46:54.142Z,71.1
2022-10-19T08:48:09.338Z,71.1
2022-10-19T08:49:24.587Z,71
2022-10-19T08:50:39.773Z,71
2022-10-19T08:51:55.984Z,71
2022-10-19T08:53:12.173Z,71
2022-10-19T08:54:28.327Z,70.9
2022-10-19T08:55:44.541Z,70.9
2022-10-19T08:57:00.721Z,70.9
2022-10-19T08:58:16.883Z,71
2022-10-19T08:59:33.093Z,70.9
2022-10-19T09:00:49.293Z,70.9
2022-10-19T09:02:05.437Z,70.8
2022-10-19T09:03:21.634Z,70.8
2022-10-19T09:04:37.828Z,70.7
2022-10-19T09:05:54.039Z,70.8
2022-10-19T09:07:09.219Z,70.8
2022-10-19T09:08:25.418Z,70.8
2022-10-19T09:09:41.581Z,70.7
2022-10-19T09:10:57.780Z,70.7
2022-10-19T09:12:13.957Z,70.6
2022-10-19T09:13:30.140Z,70.6
2022-10-19T09:14:46.349Z,70.6
2022-10-19T09:16:01.549Z,70.5
2022-10-19T09:17:16.756Z,70.6
2022-10-19T09:18:32.969Z,70.6
2022-10-19T09:19:49.175Z,70.5
2022-10-19T09:21:05.360Z,70.4
2022-10-19T09:22:21.508Z,70.4
2022-10-19T09:23:37.701Z,70.3
2022-10-19T09:24:53.884Z,70.3
2022-10-19T09:26:10.080Z,70.4
2022-10-19T09:27:26.305Z,70.4
2022-10-19T09:28:42.444Z,70.4
2022-10-19T09:29:58.647Z,70.4
2022-10-19T09:31:14.869Z,70.5
2022-10-19T09:32:31.010Z,70.5
2022-10-19T09:33:46.236Z,70.3
2022-10-19T09:35:02.450Z,70.4
2022-10-19T09:36:18.594Z,70.2
2022-10-19T09:37:34.802Z,70.4
2022-10-19T09:38:50.972Z,70.5
2022-10-19T09:40:06.180Z,70.4
2022-10-19T09:41:22.386Z,70.6
2022-10-19T09:42:37.602Z,70.6
2022-10-19T09:43:52.796Z,70.6
2022-10-19T09:45:08.049Z,70.6
2022-10-19T09:46:23.253Z,70.4
2022-10-19T09:47:38.425Z,70.3
2022-10-19T09:48:53.642Z,70.4
2022-10-19T09:50:09.862Z,70.5
2022-10-19T09:51:26.024Z,70.4
2022-10-19T09:52:42.204Z,70.4
2022-10-19T09:53:58.397Z,70.1
2022-10-19T09:55:14.570Z,70
2022-10-19T09:56:30.777Z,70.1
2022-10-19T09:57:47.002Z,70.2
2022-10-19T09:59:03.182Z,70.3
2022-10-19T10:00:19.384Z,70.4
2022-10-19T10:01:35.517Z,70.5
2022-10-19T10:02:51.748Z,70.6
2022-10-19T10:04:07.945Z,70.6
2022-10-19T10:05:23.148Z,70.5
2022-10-19T10:06:39.286Z,69.9
2022-10-19T10:07:55.491Z,69.5
2022-10-19T10:09:11.667Z,69.3
2022-10-19T10:10:27.854Z,69
2022-10-19T10:11:44.082Z,68.3
2022-10-19T10:13:00.282Z,68.2
2022-10-19T10:14:15.456Z,67.6
2022-10-19T10:15:30.696Z,66.8
2022-10-19T10:16:45.881Z,66.5
2022-10-19T10:18:01.066Z,67
2022-10-19T10:19:17.266Z,67
2022-10-19T10:20:33.510Z,67.2
2022-10-19T10:21:49.692Z,67.8
2022-10-19T10:23:05.878Z,68.2
2022-10-19T10:24:22.072Z,68.2
2022-10-19T10:25:38.199Z,68.2
2022-10-19T10:26:54.404Z,68.4
2022-10-19T10:28:10.639Z,68.7
2022-10-19T10:29:26.781Z,68.8
2022-10-19T10:30:42.960Z,68.9
2022-10-19T10:31:59.141Z,68.9
2022-10-19T10:33:15.332Z,68.9
2022-10-19T10:34:30.548Z,68.9
2022-10-19T10:35:46.791Z,68
2022-10-19T10:37:02.965Z,67.2
2022-10-19T10:38:19.108Z,67.2
2022-10-19T10:39:35.290Z,66.9
2022-10-19T10:40:51.483Z,66.9
2022-10-19T10:42:07.676Z,65.8
2022-10-19T10:43:22.943Z,66.2
2022-10-19T10:44:38.099Z,66.1
2022-10-19T10:45:54.285Z,65.3
2022-10-19T10:47:09.555Z,65.2
2022-10-19T10:48:24.702Z,65.4
2022-10-19T10:49:40.938Z,66.3
2022-10-19T10:50:57.129Z,67.2
2022-10-19T10:52:13.266Z,67.5
2022-10-19T10:53:29.514Z,65.9
2022-10-19T10:54:45.707Z,64.9
2022-10-19T10:56:01.831Z,64
2022-10-19T10:57:18.016Z,64.5
2022-10-19T10:58:34.220Z,64
2022-10-19T10:59:50.452Z,63.6
2022-10-19T11:01:06.651Z,64.7
2022-10-19T11:02:22.788Z,65.5
2022-10-19T11:03:38.981Z,65.2
2022-10-19T11:04:54.185Z,65
2022-10-19T11:06:10.424Z,65.7
2022-10-19T11:07:26.556Z,65.7
2022-10-19T11:08:42.741Z,66.5
2022-10-19T11:09:58.927Z,67.1
2022-10-19T11:11:15.129Z,67.5
2022-10-19T11:12:31.355Z,67.6
2022-10-19T11:13:46.529Z,65.9
2022-10-19T11:15:01.792Z,65.9
2022-10-19T11:16:17.008Z,66.5
2022-10-19T11:17:32.199Z,66.9
2022-10-19T11:18:48.328Z,65.4
2022-10-19T11:20:04.578Z,64.3
2022-10-19T11:21:20.782Z,65.3
2022-10-19T11:22:36.907Z,65.2
2022-10-19T11:23:53.155Z,65.9
2022-10-19T11:25:09.333Z,65.2
2022-10-19T11:26:25.471Z,64
2022-10-19T11:27:41.717Z,63.4
2022-10-19T11:28:57.902Z,62.9
2022-10-19T11:30:14.029Z,62.6
2022-10-19T11:31:30.287Z,62.3
2022-10-19T11:32:46.413Z,61.9
2022-10-19T11:34:01.613Z,61.6
2022-10-19T11:35:17.799Z,61.4
2022-10-19T11:36:34.061Z,62.1
2022-10-19T11:37:50.245Z,63
2022-10-19T11:39:06.386Z,63.6
2022-10-19T11:40:22.632Z,64.3
2022-10-19T11:41:38.746Z,64.8
2022-10-19T11:42:53.976Z,65
2022-10-19T11:44:09.231Z,63.4
2022-10-19T11:45:25.363Z,62.2
2022-10-19T11:46:40.643Z,61.5
2022-10-19T11:47:55.780Z,62.7
2022-10-19T11:49:11.965Z,63.8
2022-10-19T11:50:28.217Z,64.3
2022-10-19T11:51:44.413Z,63.6
2022-10-19T11:53:00.610Z,63
2022-10-19T11:54:16.786Z,63.8
2022-10-19T11:55:32.910Z,64.3
2022-10-19T11:56:49.097Z,64.8
2022-10-19T11:58:05.301Z,65.1
2022-10-19T11:59:21.485Z,65.3
2022-10-19T12:00:37.673Z,65.4
2022-10-19T12:01:53.868Z,65.5
2022-10-19T12:03:10.049Z,65.6
2022-10-19T12:04:25.330Z,65.6
2022-10-19T12:05:41.514Z,65.7
2022-10-19T12:06:57.705Z,65.8
2022-10-19T12:08:13.821Z,65.9
2022-10-19T12:09:30.082Z,66.1
2022-10-19T12:10:46.199Z,66.2
2022-10-19T12:12:02.458Z,66.3
2022-10-19T12:13:17.598Z,66.3
2022-10-19T12:14:32.872Z,66.4
2022-10-19T12:15:49.062Z,66.5
2022-10-19T12:17:04.223Z,66.5
2022-10-19T12:18:19.499Z,66.5
2022-10-19T12:19:35.612Z,66.5
2022-10-19T12:20:51.799Z,66.5
2022-10-19T12:22:08.062Z,66.4
2022-10-19T12:23:24.185Z,66.2
2022-10-19T12:24:40.370Z,65.3
2022-10-19T12:25:56.546Z,64.3
2022-10-19T12:27:12.743Z,64.8
2022-10-19T12:28:28.934Z,65
2022-10-19T12:29:45.118Z,65.3
2022-10-19T12:31:01.391Z,65.5
2022-10-19T12:32:17.503Z,65.6
2022-10-19T12:33:33.690Z,65.8
2022-10-19T12:34:48.886Z,65.9
2022-10-19T12:36:05.073Z,66
2022-10-19T12:37:21.275Z,66.2
2022-10-19T12:38:37.454Z,66.4
2022-10-19T12:39:53.714Z,66.5
2022-10-19T12:41:09.840Z,66.7
2022-10-19T12:42:26.021Z,66.8
2022-10-19T12:43:41.230Z,67.3
2022-10-19T12:44:56.511Z,67.3
2022-10-19T12:46:11.668Z,67.3
2022-10-19T12:47:26.869Z,67.2
2022-10-19T12:48:43.053Z,67.2
2022-10-19T12:49:59.252Z,67.2
2022-10-19T12:51:15.428Z,66.9
2022-10-19T12:52:31.699Z,66.8
2022-10-19T12:53:47.876Z,66.7
2022-10-19T12:55:03.994Z,66.6
2022-10-19T12:56:20.187Z,66.6
2022-10-19T12:57:36.383Z,66.5
2022-10-19T12:58:52.571Z,66.5
2022-10-19T13:00:08.763Z,66.7
2022-10-19T13:01:24.947Z,66.8
2022-10-19T13:02:41.121Z,67
2022-10-19T13:03:56.331Z,67.2
2022-10-19T13:05:12.611Z,67.3
2022-10-19T13:06:28.793Z,67.5
2022-10-19T13:07:44.990Z,67.6
2022-10-19T13:09:01.170Z,67.7
2022-10-19T13:10:17.359Z,67.7
2022-10-19T13:11:33.463Z,67.6
2022-10-19T13:12:48.684Z,67.6
2022-10-19T13:14:03.974Z,67.7
2022-10-19T13:15:19.185Z,67.7
2022-10-19T13:16:34.302Z,67.7
2022-10-19T13:17:50.505Z,67.6
2022-10-19T13:19:06.767Z,67.4
2022-10-19T13:20:22.869Z,67.3
2022-10-19T13:21:39.151Z,67.3
2022-10-19T13:22:55.347Z,67.3
2022-10-19T13:24:11.447Z,67.3
2022-10-19T13:25:27.716Z,67.3
2022-10-19T13:26:43.813Z,67.5
2022-10-19T13:28:00.017Z,67.5
2022-10-19T13:29:16.193Z,67.7
2022-10-19T13:30:32.391Z,67.8
2022-10-19T13:31:48.567Z,67.8
2022-10-19T13:33:03.792Z,67.8
2022-10-19T13:34:20.062Z,68
2022-10-19T13:35:36.159Z,68.1
2022-10-19T13:36:52.339Z,68.1
2022-10-19T13:38:08.625Z,68.1
2022-10-19T13:39:24.810Z,68.1
2022-10-19T13:40:40.904Z,68.2
2022-10-19T13:41:56.136Z,68.2
2022-10-19T13:43:11.334Z,68.2
2022-10-19T13:44:26.546Z,68.2
2022-10-19T13:45:41.845Z,68.2
2022-10-19T13:46:58.023Z,68.2
2022-10-19T13:48:14.217Z,68.3
2022-10-19T13:49:30.318Z,68.4
2022-10-19T13:50:46.517Z,68.4
2022-10-19T13:52:02.689Z,68.4
2022-10-19T13:53:18.970Z,68.4
2022-10-19T13:54:34.187Z,68.4
2022-10-19T13:55:50.283Z,68.4
2022-10-19T13:57:06.569Z,68.4
2022-10-19T13:58:22.669Z,68.4
2022-10-19T13:59:38.956Z,68.4
2022-10-19T14:00:55.135Z,68.3
2022-10-19T14:02:11.229Z,68.4
2022-10-19T14:03:27.418Z,68.4
2022-10-19T14:04:43.618Z,68.5
2022-10-19T14:05:59.895Z,68.5
2022-10-19T14:07:15.979Z,68.5
2022-10-19T14:08:32.181Z,68.5
2022-10-19T14:09:48.454Z,68.5
2022-10-19T14:11:03.588Z,68.5
2022-10-19T14:12:18.885Z,68.5
2022-10-19T14:13:34.005Z,68.5
2022-10-19T14:14:49.205Z,68.7
2022-10-19T14:16:05.399Z,68.7
2022-10-19T14:17:21.584Z,68.8
2022-10-19T14:18:37.874Z,68.8
2022-10-19T14:19:53.958Z,69
2022-10-19T14:21:10.159Z,69
2022-10-19T14:22:26.335Z,69
2022-10-19T14:23:42.635Z,69
2022-10-19T14:24:58.726Z,69
2022-10-19T14:26:15.012Z,69.2
2022-10-19T14:27:31.105Z,69.2
2022-10-19T14:28:47.370Z,69.2
2022-10-19T14:30:03.475Z,69.3
2022-10-19T14:31:18.784Z,69.3
2022-10-19T14:32:34.859Z,69.3
2022-10-19T14:33:51.160Z,69.3
2022-10-19T14:35:07.350Z,69.3
2022-10-19T14:36:23.431Z,69.4
2022-10-19T14:37:39.727Z,69.4
2022-10-19T14:38:55.901Z,69.5
2022-10-19T14:40:11.021Z,69.5
2022-10-19T14:41:26.228Z,69.5
2022-10-19T14:42:41.445Z,69.6
2022-10-19T14:43:56.660Z,69.6
2022-10-19T14:45:12.846Z,69.6
2022-10-19T14:46:29.029Z,69.6
2022-10-19T14:47:45.316Z,69.6
2022-10-19T14:49:01.517Z,69.6
2022-10-19T14:50:17.602Z,69.6
2022-10-19T14:51:33.783Z,69.6
2022-10-19T14:52:49.978Z,69.6
2022-10-19T14:54:06.273Z,69.6
2022-10-19T14:55:22.350Z,69.6
2022-10-19T14:56:38.650Z,69.6
2022-10-19T14:57:54.736Z,69.7
2022-10-19T14:59:10.914Z,69.7
2022-10-19T15:00:26.232Z,69.7
2022-10-19T15:01:42.422Z,69.8
2022-10-19T15:02:58.598Z,69.7
2022-10-19T15:04:14.792Z,69.7
2022-10-19T15:05:30.887Z,69.7
2022-10-19T15:06:47.073Z,69.7
2022-10-19T15:08:03.247Z,69.7
2022-10-19T15:09:18.584Z,69.6
2022-10-19T15:10:33.674Z,69.7
2022-10-19T15:11:49.976Z,69.8
2022-10-19T15:13:05.178Z,69.8
2022-10-19T15:14:20.388Z,69.8
2022-10-19T15:15:36.573Z,69.8
2022-10-19T15:16:52.776Z,69.8
2022-10-19T15:18:08.855Z,69.9
2022-10-19T15:19:25.159Z,69.9
2022-10-19T15:20:41.343Z,70
2022-10-19T15:21:57.421Z,70
2022-10-19T15:23:13.600Z,70
2022-10-19T15:24:29.903Z,70.1
2022-10-19T15:25:45.985Z,70.1
2022-10-19T15:27:02.285Z,70.1
2022-10-19T15:28:18.463Z,70.2
2022-10-19T15:29:34.560Z,70.2
2022-10-19T15:30:49.749Z,70.3
2022-10-19T15:32:06.075Z,70.3
2022-10-19T15:33:22.130Z,70.3
2022-10-19T15:34:38.318Z,70.4
2022-10-19T15:35:54.519Z,70.4
2022-10-19T15:37:10.696Z,70.4
2022-10-19T15:38:27.005Z,70.4
2022-10-19T15:39:42.208Z,70.5
2022-10-19T15:40:57.422Z,70.5
2022-10-19T15:42:13.610Z,70.5
2022-10-19T15:43:29.698Z,70.5
2022-10-19T15:44:45.873Z,70.5
2022-10-19T15:46:02.064Z,70.6
2022-10-19T15:47:18.366Z,70.6
2022-10-19T15:48:34.447Z,70.6
2022-10-19T15:49:50.751Z,70.6
2022-10-19T15:51:06.818Z,70.7
2022-10-19T15:52:23.002Z,70.7
2022-10-19T15:53:39.322Z,70.7
2022-10-19T15:54:55.508Z,70.8
2022-10-19T15:56:11.565Z,70.8
2022-10-19T15:57:26.891Z,70.8
2022-10-19T15:58:42.972Z,70.8
2022-10-19T15:59:59.278Z,71
2022-10-19T16:01:15.339Z,71
2022-10-19T16:02:31.650Z,71
2022-10-19T16:03:47.846Z,71.1
2022-10-19T16:05:04.030Z,71.1
2022-10-19T16:06:19.250Z,71.1
2022-10-19T16:07:34.335Z,71.1
2022-10-19T16:08:50.526Z,71.1
2022-10-19T16:10:06.823Z,71.2
2022-10-19T16:11:22.895Z,71.2
2022-10-19T16:12:39.085Z,71.2
2022-10-19T16:13:55.273Z,71.2
2022-10-19T16:15:11.468Z,71.2
2022-10-19T16:16:27.764Z,71.3
2022-10-19T16:17:43.964Z,71.3
2022-10-19T16:19:00.149Z,71.3
2022-10-19T16:20:16.345Z,71.3
2022-10-19T16:21:32.418Z,71.3
2022-10-19T16:22:48.717Z,71.4
2022-10-19T16:24:03.797Z,71.4
2022-10-19T16:25:20.122Z,71.4
2022-10-19T16:26:36.187Z,71.4
2022-10-19T16:27:52.502Z,71.4
2022-10-19T16:29:08.683Z,71.4
2022-10-19T16:30:24.754Z,71.5
2022-10-19T16:31:41.051Z,71.4
2022-10-19T16:32:56.269Z,71.5
2022-10-19T16:34:11.359Z,71.5
2022-10-19T16:35:26.698Z,71.5
2022-10-19T16:36:41.910Z,71.5
2022-10-19T16:37:57.005Z,71.5
2022-10-19T16:39:12.200Z,71.5
2022-10-19T16:40:28.393Z,71.5
2022-10-19T16:41:44.707Z,71.6
2022-10-19T16:43:00.881Z,71.6
2022-10-19T16:44:17.077Z,71.6
2022-10-19T16:45:33.149Z,71.6
2022-10-19T16:46:49.340Z,71.6
2022-10-19T16:48:05.518Z,71.6
2022-10-19T16:49:21.709Z,71.7
2022-10-19T16:50:38.022Z,71.7
2022-10-19T16:51:54.086Z,71.7
2022-10-19T16:53:10.274Z,71.7
2022-10-19T16:54:26.595Z,71.7
2022-10-19T16:55:41.801Z,71.7
2022-10-19T16:56:57.849Z,71.8
2022-10-19T16:58:14.182Z,71.8
2022-10-19T16:59:30.236Z,71.8
2022-10-19T17:00:46.420Z,71.8
2022-10-19T17:02:02.611Z,71.8
2022-10-19T17:03:18.798Z,71.9